Time;durP1;ratioP1;P1;durP2;ratioP2;P2;SDS_P1;SDS_P2;PMS_P1;PMS_P2;Temp;Humidity;BMP_temperature;BMP_pressure;BME280_temperature;BME280_humidity;BME280_pressure;Samples;Min_cycle;Max_cycle;Signal;HPM_P1;HPM_P2
2022/04/23 00:00:39;;;;;;;14.3;12;;;;;;;6.72;85.61133;924.4372;;;;
2022/04/23 00:03:05;;;;;;;15.4;12.4;;;;;;;6.71;85.59961;924.4214;;;;
2022/04/23 00:05:33;;;;;;;17.3;13.6;;;;;;;6.75;85.33496;924.4072;;;;
2022/04/23 00:07:57;;;;;;;16.8;12.1;;;;;;;6.76;84.5332;924.3962;;;;
2022/04/23 00:10:24;;;;;;;15.1;11.3;;;;;;;6.76;83.86523;924.3599;;;;
2022/04/23 00:12:50;;;;;;;13.4;10.7;;;;;;;6.77;83.54883;924.321;;;;
2022/04/23 00:15:15;;;;;;;13;10.8;;;;;;;6.84;82.80566;924.3198;;;;
2022/04/23 00:17:43;;;;;;;14.6;11.8;;;;;;;6.66;83.57422;924.3146;;;;
2022/04/23 00:20:06;;;;;;;14.3;11.8;;;;;;;6.39;85.19531;924.3428;;;;
2022/04/23 00:22:37;;;;;;;13.3;11;;;;;;;6.32;85.49805;924.3339;;;;
2022/04/23 00:25:05;;;;;;;14.6;11.6;;;;;;;6.13;86.46582;924.367;;;;
2022/04/23 00:27:36;;;;;;;15.4;12;;;;;;;6;87.41211;924.2976;;;;
2022/04/23 00:30:01;;;;;;;13.7;11.6;;;;;;;6.01;87.55078;924.3406;;;;
2022/04/23 00:32:31;;;;;;;16.5;12.5;;;;;;;6.04;87.31738;924.3596;;;;
2022/04/23 00:35:01;;;;;;;15.5;11.9;;;;;;;6.07;86.96289;924.3218;;;;
2022/04/23 00:37:54;;;;;;;15.7;12.1;;;;;;;6.12;86.56738;924.3173;;;;
2022/04/23 00:40:21;;;;;;;16.8;12.1;;;;;;;6.16;86.4502;924.2928;;;;
2022/04/23 00:42:51;;;;;;;13.1;11;;;;;;;6.16;86.16797;924.2992;;;;
2022/04/23 00:45:14;;;;;;;13.9;11.8;;;;;;;6.09;86.70898;924.2665;;;;
2022/04/23 00:47:39;;;;;;;14.7;12.2;;;;;;;6.05;87.30762;924.3178;;;;
2022/04/23 00:50:13;;;;;;;16.8;13;;;;;;;5.95;88.34961;924.3574;;;;
2022/04/23 00:52:46;;;;;;;14.1;11.9;;;;;;;6.02;88.05957;924.3209;;;;
2022/04/23 00:55:11;;;;;;;17.1;13.1;;;;;;;6.08;87.64258;924.2104;;;;
2022/04/23 00:57:44;;;;;;;14.6;12.4;;;;;;;6.1;87.19434;924.284;;;;
2022/04/23 01:00:13;;;;;;;14.7;12;;;;;;;6.01;87.31152;924.2947;;;;
2022/04/23 01:02:38;;;;;;;16.2;12.6;;;;;;;5.95;88.06738;924.2792;;;;
2022/04/23 01:05:03;;;;;;;15.5;13.2;;;;;;;6.02;88.31934;924.2054;;;;
2022/04/23 01:07:38;;;;;;;15.8;13.1;;;;;;;6.15;87.4541;924.2106;;;;
2022/04/23 01:10:00;;;;;;;15.8;12.6;;;;;;;6.24;86.7041;924.2365;;;;
2022/04/23 01:12:31;;;;;;;16.7;12.6;;;;;;;6.36;85.57422;924.1451;;;;
2022/04/23 01:15:37;;;;;;;15.7;12.8;;;;;;;6.29;85.3457;924.1449;;;;
2022/04/23 01:18:03;;;;;;;16.2;12.5;;;;;;;6.12;85.91211;924.0233;;;;
2022/04/23 01:20:34;;;;;;;16.2;12.9;;;;;;;6.01;86.36133;924.0361;;;;
2022/04/23 01:23:02;;;;;;;17.2;13.5;;;;;;;5.88;87.18262;924.1381;;;;
2022/04/23 01:25:27;;;;;;;19.6;13.6;;;;;;;5.78;87.5459;924.0931;;;;
2022/04/23 01:27:56;;;;;;;15.9;13;;;;;;;5.71;87.99609;924.0597;;;;
2022/04/23 01:30:21;;;;;;;17.2;12.9;;;;;;;5.73;88.26855;924.0439;;;;
2022/04/23 01:32:54;;;;;;;18.5;14.1;;;;;;;5.6;89.19141;924.0265;;;;
2022/04/23 01:38:24;;;;;;;19.2;13.5;;;;;;;5.7;88.17285;924.0936;;;;
2022/04/23 01:40:50;;;;;;;17.3;13.5;;;;;;;5.76;87.84961;924.108;;;;
2022/04/23 01:43:15;;;;;;;16.8;13.2;;;;;;;5.89;87.21973;923.9896;;;;
2022/04/23 01:45:41;;;;;;;18.1;13.9;;;;;;;5.98;86.37793;924.0432;;;;
2022/04/23 01:48:10;;;;;;;17.3;13.4;;;;;;;6.09;85.24902;924.1322;;;;
2022/04/23 01:50:42;;;;;;;18.2;13.4;;;;;;;6.09;85.2832;924.1164;;;;
2022/04/23 01:53:07;;;;;;;18.9;12.8;;;;;;;6.1;84.86719;924.1252;;;;
2022/04/23 01:55:38;;;;;;;17.5;12.1;;;;;;;6.09;84.66309;924.1512;;;;
2022/04/23 01:58:08;;;;;;;15.6;12.3;;;;;;;6.08;84.39844;924.2033;;;;
2022/04/23 02:00:33;;;;;;;16.5;13;;;;;;;6.07;84.04785;924.178;;;;
2022/04/23 02:03:04;;;;;;;15.8;12.9;;;;;;;6;84.22559;924.1253;;;;
2022/04/23 02:05:29;;;;;;;14.4;12.2;;;;;;;5.96;82.87207;924.2296;;;;
2022/04/23 02:07:57;;;;;;;20.5;13.9;;;;;;;5.84;83.85449;924.1908;;;;
2022/04/23 02:10:22;;;;;;;17.5;13.9;;;;;;;5.85;84.51172;924.269;;;;
2022/04/23 02:12:49;;;;;;;17.4;13.9;;;;;;;5.83;84.29395;924.3148;;;;
2022/04/23 02:15:14;;;;;;;18.4;14.1;;;;;;;5.72;84.45313;924.2981;;;;
2022/04/23 02:17:47;;;;;;;19.9;14.1;;;;;;;5.71;84.74414;924.2847;;;;
2022/04/23 02:20:16;;;;;;;18.4;14.7;;;;;;;5.64;85.06934;924.2441;;;;
2022/04/23 02:22:45;;;;;;;17.1;14.3;;;;;;;5.62;84.71582;924.2906;;;;
2022/04/23 02:25:11;;;;;;;22.1;15.7;;;;;;;5.58;85.68848;924.2537;;;;
2022/04/23 02:28:14;;;;;;;18.9;14.3;;;;;;;5.51;86.19531;924.3978;;;;
2022/04/23 02:30:42;;;;;;;19.7;15.5;;;;;;;5.42;86.71777;924.4116;;;;
2022/04/23 02:33:07;;;;;;;20;15.7;;;;;;;5.51;86.90625;924.4128;;;;
2022/04/23 02:35:39;;;;;;;19.8;15.6;;;;;;;5.53;86.79688;924.4099;;;;
2022/04/23 02:38:03;;;;;;;20.6;14.7;;;;;;;5.56;85.99121;924.3681;;;;
2022/04/23 02:40:32;;;;;;;20.4;15.3;;;;;;;5.49;86.16699;924.4128;;;;
2022/04/23 02:44:06;;;;;;;18.4;14.6;;;;;;;5.59;85.84863;924.4275;;;;
2022/04/23 02:46:35;;;;;;;19.7;15;;;;;;;5.63;85.64258;924.4375;;;;
2022/04/23 02:49:00;;;;;;;19;15;;;;;;;5.63;85.43945;924.3839;;;;
2022/04/23 02:51:28;;;;;;;17.2;14.2;;;;;;;5.6;85.3418;924.4252;;;;
2022/04/23 02:53:53;;;;;;;19.3;14.4;;;;;;;5.53;85.63379;924.4019;;;;
2022/04/23 02:56:20;;;;;;;18.1;14.8;;;;;;;5.36;85.91602;924.4283;;;;
2022/04/23 02:58:45;;;;;;;17.7;14.2;;;;;;;5.34;86.30664;924.3596;;;;
2022/04/23 03:01:11;;;;;;;18.4;14.4;;;;;;;5.37;85.89355;924.3463;;;;
2022/04/23 03:03:37;;;;;;;18.8;14.8;;;;;;;5.34;85.84473;924.3705;;;;
2022/04/23 03:06:07;;;;;;;21.4;15.4;;;;;;;5.32;85.5459;924.3577;;;;
2022/04/23 03:12:19;;;;;;;18.3;14.5;;;;;;;5.11;86.74414;924.4224;;;;
2022/04/23 03:14:46;;;;;;;17.8;14.4;;;;;;;4.95;88.04297;924.3254;;;;
2022/04/23 03:17:11;;;;;;;19.4;15.3;;;;;;;5.03;87.58594;924.335;;;;
2022/04/23 03:19:41;;;;;;;20.5;15;;;;;;;5.1;87.11426;924.3047;;;;
2022/04/23 03:22:05;;;;;;;18.1;14.5;;;;;;;5;87.43262;924.3139;;;;
2022/04/23 03:24:34;;;;;;;17.4;14.4;;;;;;;4.89;88.23242;924.2635;;;;
2022/04/23 03:26:59;;;;;;;20.5;15.5;;;;;;;4.8;89.31836;924.2869;;;;
2022/04/23 03:29:30;;;;;;;19.9;14.4;;;;;;;4.71;89.64844;924.2514;;;;
2022/04/23 03:31:57;;;;;;;22.4;15.5;;;;;;;4.73;90.27148;924.2256;;;;
2022/04/23 03:34:27;;;;;;;21.9;16.2;;;;;;;4.67;89.52832;924.1669;;;;
2022/04/23 03:36:58;;;;;;;18.8;14.6;;;;;;;4.77;88.74902;924.1842;;;;
2022/04/23 03:39:30;;;;;;;20.9;15.1;;;;;;;4.8;87.95508;924.0677;;;;
2022/04/23 03:41:55;;;;;;;19.2;15;;;;;;;4.9;87.53613;924.1894;;;;
2022/04/23 03:44:28;;;;;;;19.6;14.7;;;;;;;4.97;86.99707;924.2112;;;;
2022/04/23 03:47:03;;;;;;;19.7;15;;;;;;;4.98;86.86523;924.2208;;;;
2022/04/23 03:49:29;;;;;;;21.9;15.2;;;;;;;4.93;87.54199;924.1905;;;;
2022/04/23 03:54:19;;;;;;;24;16.7;;;;;;;4.93;88.21777;924.1526;;;;
2022/04/23 03:56:48;;;;;;;19.9;15.6;;;;;;;4.85;87.26758;924.1354;;;;
2022/04/23 03:59:14;;;;;;;19.1;14.6;;;;;;;4.8;86.80566;924.0606;;;;
2022/04/23 04:02:33;;;;;;;24.3;17.2;;;;;;;4.63;87.51465;924.1326;;;;
2022/04/23 04:05:02;;;;;;;19.7;15.5;;;;;;;4.74;87.00879;924.0381;;;;
2022/04/23 04:07:27;;;;;;;20.5;15;;;;;;;4.75;86.54883;924.0728;;;;
2022/04/23 04:09:57;;;;;;;19.9;14.9;;;;;;;4.89;86.50879;924.0923;;;;
2022/04/23 04:12:22;;;;;;;21;15.5;;;;;;;4.83;86.74414;924.1392;;;;
2022/04/23 04:14:52;;;;;;;21.6;16.2;;;;;;;4.76;87.10059;924.1983;;;;
2022/04/23 04:17:17;;;;;;;20.6;14.4;;;;;;;4.69;85.1377;924.2024;;;;
2022/04/23 04:19:42;;;;;;;22.1;14.8;;;;;;;4.53;84.52344;924.1599;;;;
2022/04/23 04:22:12;;;;;;;19.1;14.7;;;;;;;4.5;84.58398;924.1091;;;;
2022/04/23 04:24:37;;;;;;;19.3;14.9;;;;;;;4.47;84.87109;924.1655;;;;
2022/04/23 04:27:02;;;;;;;19;15;;;;;;;4.29;86.9502;924.0856;;;;
2022/04/23 04:29:27;;;;;;;19.2;15.9;;;;;;;4.3;87.9541;924.1605;;;;
2022/04/23 04:31:57;;;;;;;19.8;15;;;;;;;4.35;87.2002;924.0263;;;;
2022/04/23 04:34:23;;;;;;;19.8;15.7;;;;;;;4.35;87.07422;924.1295;;;;
2022/04/23 04:36:47;;;;;;;20.4;15.5;;;;;;;4.33;87.2959;924.0812;;;;
2022/04/23 04:39:13;;;;;;;19.3;14.8;;;;;;;4.32;86.58496;924.1671;;;;
2022/04/23 04:41:42;;;;;;;19.8;15.8;;;;;;;4.32;86.85449;924;;;;
2022/04/23 04:44:07;;;;;;;20.8;15.4;;;;;;;4.39;86.82422;924.0692;;;;
2022/04/23 04:46:40;;;;;;;21.8;16.7;;;;;;;4.43;87.18066;924.0817;;;;
2022/04/23 04:49:11;;;;;;;20.9;16.5;;;;;;;4.44;86.9707;923.9959;;;;
2022/04/23 04:51:37;;;;;;;24.7;17.3;;;;;;;4.32;87.86719;924.0323;;;;
2022/04/23 04:54:09;;;;;;;24.1;17.9;;;;;;;4.36;87.68359;924.0075;;;;
2022/04/23 04:56:37;;;;;;;25.3;17.4;;;;;;;4.43;87.41699;924.0139;;;;
2022/04/23 04:59:09;;;;;;;29.1;17.4;;;;;;;4.47;87.44727;924.0308;;;;
2022/04/23 05:01:34;;;;;;;22.1;17.6;;;;;;;4.45;87.67969;924.0574;;;;
2022/04/23 05:03:59;;;;;;;22.1;17.6;;;;;;;4.54;87.84473;924.0574;;;;
2022/04/23 05:06:27;;;;;;;22.2;17.9;;;;;;;4.62;88.09766;924.0442;;;;
2022/04/23 05:08:52;;;;;;;22.9;17.8;;;;;;;4.7;88.1709;924.1813;;;;
2022/04/23 05:11:19;;;;;;;22.3;17.8;;;;;;;4.74;87.37891;924.1682;;;;
2022/04/23 05:13:44;;;;;;;23.3;17.3;;;;;;;4.6;88.27441;924.1887;;;;
2022/04/23 05:16:13;;;;;;;20.6;16.2;;;;;;;4.68;88.68359;924.2015;;;;
2022/04/23 05:18:38;;;;;;;21.7;16.1;;;;;;;4.93;88.46582;924.1218;;;;
2022/04/23 05:21:06;;;;;;;21.7;15.2;;;;;;;5.15;87.1123;924.1362;;;;
2022/04/23 05:23:31;;;;;;;20;15.2;;;;;;;5.31;86.03027;924.1541;;;;
2022/04/23 05:25:59;;;;;;;19.1;14.4;;;;;;;5.45;85.74023;924.1449;;;;
2022/04/23 05:28:24;;;;;;;22.5;16.6;;;;;;;5.63;84.50293;924.1595;;;;
2022/04/23 05:30:51;;;;;;;22.5;15.6;;;;;;;5.76;83.79395;924.1199;;;;
2022/04/23 05:33:16;;;;;;;18.2;14.3;;;;;;;5.88;83.64941;924.2241;;;;
2022/04/23 05:35:45;;;;;;;16.2;13.1;;;;;;;6.53;80.62012;924.1607;;;;
2022/04/23 05:38:10;;;;;;;16.1;12.5;;;;;;;6.57;80.7627;924.1877;;;;
2022/04/23 05:46:35;;;;;;;16;10.3;;;;;;;10.28;65.97754;924.1375;;;;
2022/04/23 05:49:00;;;;;;;12.5;9.9;;;;;;;9.47;68.1084;924.1831;;;;
2022/04/23 05:51:25;;;;;;;11.9;9.7;;;;;;;9.93;66.55078;924.1583;;;;
2022/04/23 05:53:58;;;;;;;13.1;9.8;;;;;;;10.32;65.92773;924.0025;;;;
2022/04/23 05:56:30;;;;;;;12.6;9.9;;;;;;;10.98;66.15332;924.0411;;;;
2022/04/23 05:58:57;;;;;;;11.6;9.3;;;;;;;12.94;58.61035;924.0008;;;;
2022/04/23 06:01:22;;;;;;;13;9.9;;;;;;;13.22;57.4541;924.0262;;;;
2022/04/23 06:03:50;;;;;;;11.7;10.2;;;;;;;13.29;57.25586;924.0303;;;;
2022/04/23 06:06:14;;;;;;;12.4;9.6;;;;;;;14.53;53.62891;923.9964;;;;
2022/04/23 06:08:43;;;;;;;11.7;10;;;;;;;14.76;52.87207;923.9733;;;;
2022/04/23 06:11:14;;;;;;;11.8;10;;;;;;;14.9;51.40234;924.0229;;;;
2022/04/23 06:13:46;;;;;;;11.4;9.8;;;;;;;15.56;50.35938;923.9726;;;;
2022/04/23 06:16:18;;;;;;;10.6;9.5;;;;;;;15.24;51.16406;923.9563;;;;
2022/04/23 06:18:46;;;;;;;10.1;8.7;;;;;;;15.1;51.54102;923.9522;;;;
2022/04/23 06:21:12;;;;;;;10.6;8.6;;;;;;;16.82;46.93652;923.9044;;;;
2022/04/23 06:23:40;;;;;;;11.1;9.5;;;;;;;17.21;47.07031;923.9029;;;;
2022/04/23 06:26:05;;;;;;;10.8;9.2;;;;;;;16.63;48.32813;923.8565;;;;
2022/04/23 06:28:32;;;;;;;11.6;9.2;;;;;;;17.91;44.64941;923.7852;;;;
2022/04/23 06:30:57;;;;;;;10.1;8.5;;;;;;;16.58;47.37402;923.7991;;;;
2022/04/23 06:33:24;;;;;;;10.8;9.7;;;;;;;16.17;49.2959;923.7493;;;;
2022/04/23 06:35:50;;;;;;;12.4;9.7;;;;;;;16.7;48.02344;923.7703;;;;
2022/04/23 06:38:15;;;;;;;10.5;9.4;;;;;;;17.39;46.7998;923.7562;;;;
2022/04/23 06:40:44;;;;;;;10;8.9;;;;;;;18.23;44.57813;923.7242;;;;
2022/04/23 06:43:09;;;;;;;12.4;8.8;;;;;;;18.89;42.52539;923.6807;;;;
2022/04/23 06:45:39;;;;;;;10.1;8.8;;;;;;;19.62;42.2002;923.6404;;;;
2022/04/23 06:48:09;;;;;;;9.5;8.5;;;;;;;20.07;40.55078;923.5988;;;;
2022/04/23 06:50:35;;;;;;;9.1;8.2;;;;;;;20.18;40.07129;923.6639;;;;
2022/04/23 06:53:03;;;;;;;8.6;7.8;;;;;;;20.71;39.05469;923.592;;;;
2022/04/23 06:55:28;;;;;;;10.2;8.3;;;;;;;20.15;39.40137;923.5519;;;;
2022/04/23 06:58:19;;;;;;;10.7;9.3;;;;;;;17.88;44.75;923.6083;;;;
2022/04/23 07:00:44;;;;;;;11.1;9.8;;;;;;;18.59;43.69434;923.616;;;;
2022/04/23 07:03:09;;;;;;;11.2;9.7;;;;;;;18.19;45.14355;923.6273;;;;
2022/04/23 07:05:39;;;;;;;11.5;9.9;;;;;;;17.89;46.43555;923.652;;;;
2022/04/23 07:08:04;;;;;;;11.4;9.9;;;;;;;19.31;43.125;923.5304;;;;
2022/04/23 07:10:37;;;;;;;10.7;9.6;;;;;;;19.46;42.76758;923.5128;;;;
2022/04/23 07:13:07;;;;;;;10.2;9.1;;;;;;;19.45;43;923.5172;;;;
2022/04/23 07:15:34;;;;;;;11.1;9.5;;;;;;;18.39;44.6748;923.5193;;;;
2022/04/23 07:17:59;;;;;;;11;9.6;;;;;;;18.53;44.51465;923.5391;;;;
2022/04/23 07:20:24;;;;;;;10.4;9.4;;;;;;;18.53;45.14258;923.5545;;;;
2022/04/23 07:25:22;;;;;;;12.2;10.9;;;;;;;17.42;48.57813;923.6183;;;;
2022/04/23 07:27:53;;;;;;;12.8;10.2;;;;;;;17.84;47.70703;923.5842;;;;
2022/04/23 07:30:27;;;;;;;12.5;11.1;;;;;;;18.35;46.03125;923.5257;;;;
2022/04/23 07:32:56;;;;;;;11.8;10.4;;;;;;;18.88;45.5166;923.6079;;;;
2022/04/23 07:37:54;;;;;;;10.4;9.1;;;;;;;20;42.3418;923.5209;;;;
2022/04/23 07:40:19;;;;;;;11;9.3;;;;;;;20.8;40.30176;923.4525;;;;
2022/04/23 07:42:51;;;;;;;16.6;9.1;;;;;;;20.56;40.68848;923.4063;;;;
2022/04/23 07:45:22;;;;;;;11.4;8.7;;;;;;;19.96;41.54395;923.3962;;;;
2022/04/23 07:47:53;;;;;;;9.7;8.7;;;;;;;20.54;41.83301;923.3867;;;;
2022/04/23 07:50:25;;;;;;;11.6;9.7;;;;;;;20.39;41.12891;923.344;;;;
2022/04/23 07:52:55;;;;;;;10.5;9.4;;;;;;;21.28;40.73145;923.3855;;;;
2022/04/23 07:55:20;;;;;;;10.5;9.4;;;;;;;21.99;38.17188;923.3416;;;;
2022/04/23 07:57:51;;;;;;;10;9;;;;;;;21.46;39.9873;923.2994;;;;
2022/04/23 08:00:21;;;;;;;11.7;9.6;;;;;;;21.47;39.83691;923.2697;;;;
2022/04/23 08:02:54;;;;;;;10.5;9.3;;;;;;;22.38;38.52246;923.1886;;;;
2022/04/23 08:05:26;;;;;;;12.3;9.4;;;;;;;23.17;36.55859;923.2317;;;;
2022/04/23 08:07:57;;;;;;;11.9;9.3;;;;;;;23.47;37.21777;923.2078;;;;
2022/04/23 08:10:22;;;;;;;12;9.6;;;;;;;22.19;38.41211;923.24;;;;
2022/04/23 08:12:55;;;;;;;10.1;9;;;;;;;21.69;38.36816;923.2137;;;;
2022/04/23 08:15:19;;;;;;;10.4;9.3;;;;;;;21.68;39.24707;923.2355;;;;
2022/04/23 08:17:44;;;;;;;11.2;9.3;;;;;;;21.04;41.30664;923.2029;;;;
2022/04/23 08:20:10;;;;;;;10.9;9.2;;;;;;;21.34;40.22168;923.1816;;;;
2022/04/23 08:22:40;;;;;;;14.6;10.6;;;;;;;21.79;40.06348;923.1201;;;;
2022/04/23 08:25:16;;;;;;;11.2;9.9;;;;;;;21.45;41.56738;923.105;;;;
2022/04/23 08:27:49;;;;;;;13.3;10.7;;;;;;;21.67;40.52246;923.0391;;;;
2022/04/23 08:30:36;;;;;;;13.4;11;;;;;;;20.46;42.49121;923.0844;;;;
2022/04/23 08:32:48;;;;;;;13.4;11.3;;;;;;;20.39;42.91504;922.9724;;;;
2022/04/23 08:35:15;;;;;;;12.9;10.8;;;;;;;19.71;44.54102;922.9705;;;;
2022/04/23 08:37:50;;;;;;;14.2;11.3;;;;;;;19.29;45.39551;922.9794;;;;
2022/04/23 08:40:16;;;;;;;13.3;10.8;;;;;;;19.39;45.33691;922.9983;;;;
2022/04/23 08:42:44;;;;;;;14.3;11.5;;;;;;;19.02;45.85645;923.0288;;;;
2022/04/23 08:45:18;;;;;;;12.5;10.8;;;;;;;18.87;46.0498;922.9866;;;;
2022/04/23 08:47:50;;;;;;;13.8;11.5;;;;;;;18.27;48.83496;923.0603;;;;
2022/04/23 08:50:18;;;;;;;13.4;11.6;;;;;;;17.47;50.60156;923.1117;;;;
2022/04/23 08:52:50;;;;;;;16.3;12.8;;;;;;;16.34;53.83887;923.0985;;;;
2022/04/23 08:55:18;;;;;;;15;12.7;;;;;;;16.25;55.4248;923.1033;;;;
2022/04/23 08:57:43;;;;;;;16.8;13.5;;;;;;;16.1;55.2793;923.0008;;;;
2022/04/23 09:00:08;;;;;;;17.9;14.5;;;;;;;15.3;58.59277;922.9752;;;;
2022/04/23 09:02:41;;;;;;;17.3;14.5;;;;;;;15.13;58.41992;923.0815;;;;
2022/04/23 09:05:07;;;;;;;17.7;14.4;;;;;;;14.81;59.46191;923.0511;;;;
2022/04/23 09:07:34;;;;;;;19.1;15.6;;;;;;;14.59;60.0791;923.1255;;;;
2022/04/23 09:09:59;;;;;;;19.3;15.6;;;;;;;14.49;60.68652;923.071;;;;
2022/04/23 09:12:25;;;;;;;19.8;15.2;;;;;;;13.99;62.43555;923.09;;;;
2022/04/23 09:14:52;;;;;;;24.2;16.3;;;;;;;14.11;62.03906;923.0963;;;;
2022/04/23 09:24:33;;;;;;;21.1;16.7;;;;;;;13.84;63.2666;923.3044;;;;
2022/04/23 09:26:58;;;;;;;21.1;16;;;;;;;13.6;64.59961;923.2863;;;;
2022/04/23 09:29:27;;;;;;;21;16.2;;;;;;;13.62;64.36035;923.3572;;;;
2022/04/23 09:31:50;;;;;;;18.3;15.4;;;;;;;13.57;64.50195;923.2872;;;;
2022/04/23 09:34:22;;;;;;;20.5;17.1;;;;;;;13.35;65.29883;923.2764;;;;
2022/04/23 09:36:46;;;;;;;19.8;16.6;;;;;;;13.3;65.69141;923.3466;;;;
2022/04/23 09:39:15;;;;;;;20.8;15.8;;;;;;;13.13;65.91895;923.3781;;;;
2022/04/23 09:41:45;;;;;;;20.9;16.6;;;;;;;13.24;66.46387;923.4336;;;;
2022/04/23 09:44:12;;;;;;;21.3;16.8;;;;;;;13.25;65.92578;923.4453;;;;
2022/04/23 09:46:35;;;;;;;21.9;16.8;;;;;;;13.18;65.82324;923.473;;;;
2022/04/23 09:49:07;;;;;;;21.8;16.3;;;;;;;13.13;66.63184;923.4086;;;;
2022/04/23 09:51:36;;;;;;;20;17;;;;;;;13.08;66.49707;923.3649;;;;
2022/04/23 09:54:01;;;;;;;20.6;16.8;;;;;;;13.08;66.85254;923.4265;;;;
2022/04/23 09:56:30;;;;;;;18.9;16.1;;;;;;;13.25;66.5;923.4701;;;;
2022/04/23 09:58:59;;;;;;;20;16.5;;;;;;;13.12;67.31934;923.5094;;;;
2022/04/23 10:01:25;;;;;;;21.8;16.8;;;;;;;13.08;68.66797;923.5;;;;
2022/04/23 10:03:54;;;;;;;30;18.1;;;;;;;13.3;68.97852;923.4592;;;;
2022/04/23 10:06:20;;;;;;;23.8;17.1;;;;;;;13.61;67.12988;923.4988;;;;
2022/04/23 10:08:44;;;;;;;20.1;16.3;;;;;;;13.71;65.29395;923.5284;;;;
2022/04/23 10:11:10;;;;;;;18.9;15.9;;;;;;;13.48;66.55859;923.4501;;;;
2022/04/23 10:13:40;;;;;;;20.4;16.2;;;;;;;13.6;66.12891;923.399;;;;
2022/04/23 10:16:04;;;;;;;18.5;15.6;;;;;;;13.63;65.44238;923.3675;;;;
2022/04/23 10:18:35;;;;;;;19.7;16.4;;;;;;;13.55;66.17773;923.3979;;;;
2022/04/23 10:21:01;;;;;;;18;15.3;;;;;;;13.77;66.92383;923.3245;;;;
2022/04/23 10:23:23;;;;;;;19;15.2;;;;;;;14.11;64.43262;923.2828;;;;
2022/04/23 10:25:49;;;;;;;17.8;15.1;;;;;;;14.44;64.35352;923.2382;;;;
2022/04/23 10:28:16;;;;;;;18.4;15.1;;;;;;;14.7;62.21387;923.2717;;;;
2022/04/23 10:30:41;;;;;;;22.6;15.8;;;;;;;14.54;63.40137;923.3505;;;;
2022/04/23 10:33:08;;;;;;;32;15.8;;;;;;;14.68;62.07227;923.4316;;;;
2022/04/23 10:35:36;;;;;;;17.6;15.4;;;;;;;14.78;61.49902;923.3733;;;;
2022/04/23 10:38:02;;;;;;;19.1;14.6;;;;;;;14.95;61.11914;923.3499;;;;
2022/04/23 10:40:27;;;;;;;17.7;14.9;;;;;;;14.79;63.21777;923.2896;;;;
2022/04/23 10:42:55;;;;;;;18.8;14.8;;;;;;;15.28;60.06934;923.3005;;;;
2022/04/23 10:45:26;;;;;;;18.3;15.2;;;;;;;15.21;60.60352;923.2671;;;;
2022/04/23 10:47:55;;;;;;;18.8;15.6;;;;;;;15.66;59.78613;923.2798;;;;
2022/04/23 10:50:43;;;;;;;20.1;15.6;;;;;;;16.04;58.15039;923.1956;;;;
2022/04/23 10:53:08;;;;;;;17.9;15.4;;;;;;;15.52;59.98633;923.2224;;;;
2022/04/23 10:55:37;;;;;;;17.8;14.7;;;;;;;14.99;61.67969;923.2067;;;;
2022/04/23 10:58:02;;;;;;;19.2;15.7;;;;;;;15.05;62.55371;923.1625;;;;
2022/04/23 11:00:32;;;;;;;19.9;15.8;;;;;;;15.18;62.08691;923.1478;;;;
2022/04/23 11:03:02;;;;;;;16.6;13.7;;;;;;;15.69;59.18945;923.1544;;;;
2022/04/23 11:13:32;;;;;;;18.4;13.9;;;;;;;16.81;56.01563;922.9482;;;;
2022/04/23 11:16:04;;;;;;;15.9;13.4;;;;;;;16.63;55.88965;923.0126;;;;
2022/04/23 11:18:34;;;;;;;18.7;14.8;;;;;;;16.42;58.35059;922.9637;;;;
2022/04/23 11:20:59;;;;;;;16.4;13.4;;;;;;;16.33;58.70801;922.9728;;;;
2022/04/23 11:23:28;;;;;;;16.6;14.2;;;;;;;16.34;59.80957;922.9546;;;;
2022/04/23 11:25:53;;;;;;;15.8;13;;;;;;;16.05;58.98438;923.0003;;;;
2022/04/23 11:28:21;;;;;;;15.9;13.1;;;;;;;16.47;57.75488;923.0096;;;;
2022/04/23 11:30:46;;;;;;;14.3;12.4;;;;;;;16.53;58.66602;922.9855;;;;
2022/04/23 11:33:17;;;;;;;18;13.1;;;;;;;16.74;58.10449;922.9611;;;;
2022/04/23 11:35:45;;;;;;;15.6;12.8;;;;;;;17;55.68164;922.923;;;;
2022/04/23 11:38:18;;;;;;;15.4;12.8;;;;;;;17.11;56.34473;922.8582;;;;
2022/04/23 11:40:48;;;;;;;15.7;12;;;;;;;17.78;54.74707;922.7595;;;;
2022/04/23 11:43:13;;;;;;;13.6;11.7;;;;;;;18.33;52.47949;922.7797;;;;
2022/04/23 11:45:38;;;;;;;14.3;11.5;;;;;;;18.49;53.38281;922.8039;;;;
2022/04/23 11:48:07;;;;;;;12.8;10.8;;;;;;;18.68;52.30078;922.7142;;;;
2022/04/23 11:50:36;;;;;;;14.6;10.9;;;;;;;18.89;51.94043;922.796;;;;
2022/04/23 11:53:01;;;;;;;13.3;11.3;;;;;;;19.48;50.83301;922.7411;;;;
2022/04/23 11:55:27;;;;;;;13.3;11.1;;;;;;;19.75;50.50391;922.7289;;;;
2022/04/23 11:57:52;;;;;;;14.1;11.2;;;;;;;20.5;48.32227;922.7001;;;;
2022/04/23 12:00:27;;;;;;;12.3;10.3;;;;;;;21.14;45.65625;922.7037;;;;
2022/04/23 12:02:57;;;;;;;12.5;10.3;;;;;;;21.03;46.42773;922.6573;;;;
2022/04/23 12:05:28;;;;;;;12.8;10.5;;;;;;;20.65;46.84375;922.6719;;;;
2022/04/23 12:07:58;;;;;;;11.8;10.3;;;;;;;20.54;47.66211;922.6766;;;;
2022/04/23 12:10:26;;;;;;;12.1;9.9;;;;;;;20.71;46.45313;922.6297;;;;
2022/04/23 12:12:52;;;;;;;11.4;9.8;;;;;;;21.1;46.69238;922.5792;;;;
2022/04/23 12:15:22;;;;;;;12.3;9.5;;;;;;;21.83;43.98145;922.5345;;;;
2022/04/23 12:17:47;;;;;;;12.4;9.9;;;;;;;21.84;43.78223;922.5142;;;;
2022/04/23 12:20:15;;;;;;;11.8;9.5;;;;;;;21.51;45.37793;922.426;;;;
2022/04/23 12:22:45;;;;;;;11.2;9.8;;;;;;;21.39;46.45313;922.4629;;;;
2022/04/23 12:25:18;;;;;;;12.6;10;;;;;;;21.58;44.42383;922.4853;;;;
2022/04/23 12:27:41;;;;;;;12.3;10.4;;;;;;;20.54;47.21777;922.4749;;;;
2022/04/23 12:42:24;;;;;;;16.3;12.1;;;;;;;17.82;55.72754;922.3876;;;;
2022/04/23 12:44:52;;;;;;;14.8;12.3;;;;;;;17.36;57.80371;922.4747;;;;
2022/04/23 12:47:16;;;;;;;16.6;13.1;;;;;;;16.9;59.35352;922.4722;;;;
2022/04/23 12:49:47;;;;;;;15.3;12.2;;;;;;;16.88;58.87598;922.4872;;;;
2022/04/23 12:52:11;;;;;;;15.5;12.2;;;;;;;16.75;59.39063;922.449;;;;
2022/04/23 12:54:41;;;;;;;15.7;12.3;;;;;;;16.4;61.20605;922.4327;;;;
2022/04/23 12:57:06;;;;;;;15.6;12.5;;;;;;;16.5;61.6709;922.483;;;;
2022/04/23 12:59:34;;;;;;;16.3;12;;;;;;;16.39;61.96973;922.4;;;;
2022/04/23 13:01:59;;;;;;;16.1;12.3;;;;;;;16.56;60.48828;922.4756;;;;
2022/04/23 13:04:29;;;;;;;14.6;12.3;;;;;;;16.43;62.25391;922.4107;;;;
2022/04/23 13:09:20;;;;;;;14.9;12.2;;;;;;;16.66;60.89648;922.3853;;;;
2022/04/23 13:11:45;;;;;;;17.6;11.9;;;;;;;16.92;61.0127;922.4119;;;;
2022/04/23 13:14:11;;;;;;;14.6;11.8;;;;;;;17.39;59.41895;922.4146;;;;
2022/04/23 13:16:38;;;;;;;14.3;11.6;;;;;;;17.88;56.98926;922.2553;;;;
2022/04/23 13:19:05;;;;;;;14.8;12;;;;;;;17.54;59.64844;922.34;;;;
2022/04/23 13:21:30;;;;;;;15.1;11.6;;;;;;;17.74;57.64453;922.2872;;;;
2022/04/23 13:23:56;;;;;;;14.5;12.4;;;;;;;17.44;60.46875;922.2327;;;;
2022/04/23 13:26:21;;;;;;;15.9;12.9;;;;;;;16.93;60.19141;922.2327;;;;
2022/04/23 13:28:50;;;;;;;15.4;12.5;;;;;;;16.52;61.18848;922.1826;;;;
2022/04/23 13:31:15;;;;;;;16.5;12.5;;;;;;;16.5;61.95996;922.2364;;;;
2022/04/23 13:33:42;;;;;;;13.7;12.2;;;;;;;16.22;62.37207;922.2411;;;;
2022/04/23 13:36:07;;;;;;;19.1;12.8;;;;;;;16.25;62.22754;922.243;;;;
2022/04/23 13:38:35;;;;;;;14.1;11.3;;;;;;;16.39;61.32129;922.2715;;;;
2022/04/23 13:41:00;;;;;;;14.9;12.1;;;;;;;16.65;60.63867;922.2475;;;;
2022/04/23 13:43:28;;;;;;;15;11.3;;;;;;;17.08;60.98828;922.2028;;;;
2022/04/23 13:45:53;;;;;;;15.3;11.7;;;;;;;17.56;59.25781;922.072;;;;
2022/04/23 13:48:24;;;;;;;14.3;11.4;;;;;;;17.94;58.37988;921.99;;;;
2022/04/23 13:50:49;;;;;;;17.8;12;;;;;;;18.09;57.99219;922.0087;;;;
2022/04/23 13:53:15;;;;;;;16.2;11.4;;;;;;;17.8;57.94238;921.997;;;;
2022/04/23 13:55:45;;;;;;;15.3;12.1;;;;;;;17.47;60.11621;921.9012;;;;
2022/04/23 13:58:14;;;;;;;13.2;11.4;;;;;;;17.28;60.64551;921.9127;;;;
2022/04/23 14:00:39;;;;;;;15;12;;;;;;;17.29;60.16992;921.9009;;;;
2022/04/23 14:10:30;;;;;;;15.2;12.1;;;;;;;16.63;62.41797;921.813;;;;
2022/04/23 14:12:55;;;;;;;17.1;12.4;;;;;;;16.7;62.30273;921.8505;;;;
2022/04/23 14:15:27;;;;;;;14;12;;;;;;;16.89;61.87793;921.8703;;;;
2022/04/23 14:17:52;;;;;;;15;12;;;;;;;17.01;61.28125;921.8644;;;;
2022/04/23 14:20:27;;;;;;;14;12.3;;;;;;;17.11;60.7041;921.8725;;;;
2022/04/23 14:23:00;;;;;;;13.9;11.3;;;;;;;17.23;60.27832;921.815;;;;
2022/04/23 14:25:24;;;;;;;13.9;11.5;;;;;;;17.43;59.50684;921.7654;;;;
2022/04/23 14:27:50;;;;;;;14.5;12;;;;;;;17.5;59.74805;921.8148;;;;
2022/04/23 14:30:15;;;;;;;14.2;11;;;;;;;17.61;59.44922;921.7928;;;;
2022/04/23 14:32:46;;;;;;;13.9;11.3;;;;;;;17.87;58.33398;921.8075;;;;
2022/04/23 14:35:18;;;;;;;13.3;11.4;;;;;;;17.94;59.34375;921.8064;;;;
2022/04/23 14:37:44;;;;;;;12.2;10.6;;;;;;;17.99;58.11719;921.7192;;;;
2022/04/23 14:40:13;;;;;;;13.8;10.6;;;;;;;17.71;58.62695;921.6484;;;;
2022/04/23 14:42:40;;;;;;;13;10.6;;;;;;;17.66;58.8291;921.69;;;;
2022/04/23 14:45:05;;;;;;;13.3;11.1;;;;;;;17.57;59.21191;921.6942;;;;
2022/04/23 14:47:39;;;;;;;13.9;10.7;;;;;;;17.24;60.05957;921.6738;;;;
2022/04/23 14:50:19;;;;;;;15.1;11.1;;;;;;;17.16;60.5127;921.6558;;;;
2022/04/23 14:55:18;;;;;;;12.4;10.5;;;;;;;17.17;61.00098;921.567;;;;
2022/04/23 14:57:43;;;;;;;12.3;10.5;;;;;;;16.98;61.27637;921.5722;;;;
2022/04/23 15:00:16;;;;;;;14.6;11.3;;;;;;;16.96;61.17969;921.5813;;;;
2022/04/23 15:02:41;;;;;;;12.4;10.3;;;;;;;16.83;61.71777;921.5416;;;;
2022/04/23 15:05:15;;;;;;;14.5;11.6;;;;;;;16.72;63.11523;921.5;;;;
2022/04/23 15:07:40;;;;;;;14.1;11.6;;;;;;;16.58;62.75879;921.3925;;;;
2022/04/23 15:10:10;;;;;;;13.6;10.7;;;;;;;16.48;63.0127;921.4239;;;;
2022/04/23 15:12:41;;;;;;;15.1;10.6;;;;;;;16.53;63.8418;921.3373;;;;
2022/04/23 15:15:12;;;;;;;14.5;10.4;;;;;;;16.82;62.94434;921.3411;;;;